createdAt,value
2023-03-22T11:26:35.912Z,0
2023-03-22T11:27:44.091Z,0
2023-03-22T11:28:52.321Z,0
2023-03-22T11:30:05.921Z,0
2023-03-22T11:31:14.277Z,0
2023-03-22T11:32:22.515Z,0
2023-03-22T11:33:30.653Z,0
2023-03-22T11:34:44.436Z,0
2023-03-22T11:35:58.240Z,0
2023-03-22T11:37:06.405Z,0
2023-03-22T11:38:14.616Z,0
2023-03-22T11:39:22.900Z,0
2023-03-22T11:40:31.015Z,0
2023-03-22T11:41:39.213Z,0
2023-03-22T11:42:47.404Z,0
2023-03-22T11:43:55.647Z,0
2023-03-22T11:45:03.637Z,0
2023-03-22T11:46:11.993Z,0
2023-03-22T11:47:20.170Z,0
2023-03-22T11:48:28.330Z,0
2023-03-22T11:49:36.569Z,0
2023-03-22T11:50:44.592Z,0
2023-03-22T11:51:52.929Z,0
2023-03-22T11:53:00.982Z,0
2023-03-22T11:54:09.201Z,0
2023-03-22T11:55:17.455Z,0
2023-03-22T11:56:25.699Z,0
2023-03-22T11:57:33.912Z,0
2023-03-22T11:58:42.148Z,0
2023-03-22T11:59:50.323Z,0
2023-03-22T12:01:04.076Z,0
2023-03-22T12:02:17.731Z,0
2023-03-22T12:03:31.614Z,0
2023-03-22T12:04:39.773Z,0
2023-03-22T12:05:48.067Z,0
2023-03-22T12:06:56.241Z,0
2023-03-22T12:08:04.270Z,0
2023-03-22T12:09:12.593Z,0
2023-03-22T12:10:20.699Z,0
2023-03-22T12:11:28.989Z,0
2023-03-22T12:12:37.039Z,0
2023-03-22T12:13:45.435Z,0
2023-03-22T12:14:53.431Z,0
2023-03-22T12:16:01.712Z,0
2023-03-22T12:17:09.896Z,0
2023-03-22T12:18:18.013Z,0
2023-03-22T12:19:26.258Z,0
2023-03-22T12:20:34.401Z,0
2023-03-22T12:21:42.603Z,0
2023-03-22T12:22:50.805Z,0
2023-03-22T12:23:58.993Z,0
2023-03-22T12:25:07.191Z,0
2023-03-22T12:26:20.957Z,0
2023-03-22T12:27:34.756Z,0
2023-03-22T12:28:42.955Z,0
2023-03-22T12:29:51.158Z,0
2023-03-22T12:30:59.352Z,0
2023-03-22T12:32:07.521Z,0
2023-03-22T12:33:15.746Z,0
2023-03-22T12:34:23.933Z,0
2023-03-22T12:35:32.231Z,0
2023-03-22T12:36:40.310Z,0
2023-03-22T12:37:48.510Z,0
2023-03-22T12:38:56.717Z,0
2023-03-22T12:40:04.893Z,0
2023-03-22T12:45:45.912Z,0
2023-03-22T12:46:54.062Z,0
2023-03-22T12:48:02.261Z,0
2023-03-22T12:49:10.461Z,0
2023-03-22T12:50:24.245Z,0
2023-03-22T12:51:38.024Z,0
2023-03-22T12:52:46.243Z,0
2023-03-22T12:53:54.417Z,0
2023-03-22T12:55:02.705Z,0
2023-03-22T12:56:10.843Z,0
2023-03-22T12:58:57.440Z,46.78
2023-03-22T13:00:05.629Z,30.62
2023-03-22T13:01:13.814Z,45.89
2023-03-22T13:02:22.004Z,30.2
2023-03-22T13:03:30.201Z,45.94
2023-03-22T13:04:38.395Z,30.2
2023-03-22T13:05:46.596Z,45.91
2023-03-22T13:06:54.770Z,45.48
2023-03-22T13:08:05.078Z,0
2023-03-22T13:09:13.249Z,0
2023-03-22T13:10:21.440Z,0
2023-03-22T13:11:29.701Z,0
2023-03-22T13:12:37.836Z,0
2023-03-22T13:13:46.021Z,0
2023-03-22T13:14:54.221Z,0
2023-03-22T13:16:02.428Z,0
2023-03-22T13:17:10.600Z,0
2023-03-22T13:18:18.801Z,0
2023-03-22T13:21:29.769Z,45.46
2023-03-22T13:22:37.959Z,30.21
2023-03-22T13:23:46.134Z,45.48
2023-03-22T13:24:54.341Z,30.18
2023-03-22T13:25:37.279Z,19.2
2023-03-22T13:26:45.511Z,21.76
2023-03-22T13:27:53.691Z,22.19
2023-03-22T13:29:01.872Z,22.22
2023-03-22T13:30:10.060Z,22.2
2023-03-22T13:31:18.265Z,22.2
2023-03-22T13:32:26.445Z,21.76
2023-03-22T13:33:34.630Z,21.78
2023-03-22T13:34:42.834Z,22.2
2023-03-22T13:35:51.033Z,21.78
2023-03-22T13:36:59.216Z,21.79
2023-03-22T13:38:07.396Z,22.2
2023-03-22T13:39:15.609Z,21.76
2023-03-22T13:40:23.786Z,21.76
2023-03-22T13:41:32.005Z,22.22
2023-03-22T13:42:40.184Z,48.05
2023-03-22T13:43:48.425Z,138.68
2023-03-22T13:44:56.636Z,138.71
2023-03-22T13:46:04.839Z,48.48
2023-03-22T13:47:13.044Z,48.05
2023-03-22T13:48:26.816Z,48.89
2023-03-22T13:49:35.015Z,48.05
2023-03-22T13:50:43.213Z,48.48
2023-03-22T13:51:51.405Z,19.31
2023-03-22T13:52:59.582Z,36.16
2023-03-22T13:54:07.798Z,36.18
2023-03-22T13:55:15.986Z,36.15
2023-03-22T13:56:24.168Z,36.16
2023-03-22T13:57:32.426Z,36.16
2023-03-22T13:58:40.562Z,36.18
2023-03-22T13:59:48.741Z,36.16
2023-03-22T14:00:56.982Z,36.16
2023-03-22T14:02:05.130Z,36.18
2023-03-22T14:03:13.350Z,36.16
2023-03-22T14:04:21.528Z,36.15
2023-03-22T14:05:29.705Z,36.16
2023-03-22T14:06:37.927Z,36.15
2023-03-22T14:07:46.110Z,36.16
2023-03-22T14:08:54.287Z,36.18
2023-03-22T14:10:02.493Z,36.15
2023-03-22T14:11:16.270Z,36.18
2023-03-22T14:12:24.465Z,36.16
2023-03-22T14:13:32.658Z,36.15
2023-03-22T14:14:40.861Z,36.18
2023-03-22T14:15:49.046Z,36.16
2023-03-22T14:16:57.244Z,36.15
2023-03-22T14:18:05.427Z,36.16
2023-03-22T14:19:13.619Z,36.16
2023-03-22T14:20:21.820Z,36.16
2023-03-22T14:21:30.016Z,36.15
2023-03-22T14:52:22.388Z,36.15
2023-03-22T14:53:30.606Z,36.16
2023-03-22T14:54:38.776Z,36.16
2023-03-22T14:55:47.016Z,36.15
2023-03-22T14:56:55.171Z,36.18
2023-03-22T14:58:08.944Z,36.15
2023-03-22T14:59:22.846Z,36.16
2023-03-22T15:00:36.528Z,36.16
2023-03-22T15:01:44.727Z,36.16
2023-03-22T15:02:52.901Z,36.18
2023-03-22T15:04:01.425Z,36.16
2023-03-22T15:05:09.382Z,36.16
2023-03-22T15:06:17.467Z,36.13
2023-03-22T15:07:25.770Z,36.06
2023-03-22T15:08:34.024Z,36.13
2023-03-22T15:09:42.222Z,36.16
2023-03-22T15:10:50.396Z,36.16
2023-03-22T15:11:58.484Z,36.16
2023-03-22T15:13:06.798Z,36.18
2023-03-22T15:14:20.595Z,36.15
2023-03-22T15:15:34.406Z,36.15
2023-03-22T15:16:48.121Z,36.18
2023-03-22T15:17:56.386Z,36.16
2023-03-22T15:19:04.589Z,36.15
2023-03-22T15:20:12.723Z,36.16
2023-03-22T15:21:20.943Z,36.18
2023-03-22T15:22:29.147Z,36.15
2023-03-22T15:23:37.140Z,36.16
2023-03-22T15:24:45.574Z,36.16
2023-03-22T15:25:53.725Z,36.16
2023-03-22T15:27:01.871Z,36.13
2023-03-22T15:28:10.119Z,36.15
2023-03-22T15:29:18.387Z,36.2
2023-03-22T15:31:34.546Z,36.16
2023-03-22T15:32:42.791Z,36.18
2023-03-22T15:33:50.877Z,36.18
2023-03-22T15:34:59.259Z,36.16
2023-03-22T15:36:07.317Z,36.16
2023-03-22T15:37:15.613Z,36.18
2023-03-22T15:38:23.775Z,36.16
2023-03-22T15:39:31.999Z,36.18
2023-03-22T15:40:45.818Z,36.16
2023-03-22T15:41:59.616Z,36.16
2023-03-22T15:43:07.735Z,36.18
2023-03-22T15:44:15.800Z,36.18
2023-03-22T15:45:24.147Z,36.16
2023-03-22T15:46:32.346Z,25.33
2023-03-22T15:47:40.596Z,36.16
2023-03-22T15:48:48.774Z,36.18
2023-03-22T15:49:56.772Z,25.34
2023-03-22T15:51:05.056Z,36.16
2023-03-22T15:52:13.311Z,36.16
2023-03-22T15:53:21.526Z,24.9
2023-03-22T15:54:29.527Z,36.18
2023-03-22T15:55:37.734Z,25.33
2023-03-22T15:56:46.094Z,36.18
2023-03-22T15:57:54.306Z,25.33
2023-03-22T15:59:02.471Z,36.18
2023-03-22T16:00:10.634Z,36.16
2023-03-22T16:01:18.929Z,36.18
2023-03-22T16:02:27.093Z,25.33
2023-03-22T16:03:35.235Z,36.18
2023-03-22T16:04:49.031Z,36.18
2023-03-22T16:06:02.643Z,36.18
2023-03-22T16:07:10.960Z,36.22
2023-03-22T16:08:19.043Z,36.18
2023-03-22T16:09:27.415Z,36.2
2023-03-22T16:10:35.405Z,36.18
2023-03-22T16:11:43.810Z,36.18
2023-03-22T16:12:51.959Z,36.16
2023-03-22T16:14:00.220Z,36.16
2023-03-22T16:15:08.388Z,36.16
2023-03-22T16:16:16.377Z,36.2
2023-03-22T16:17:24.720Z,25.33
2023-03-22T16:18:32.743Z,36.2
2023-03-22T16:19:41.015Z,36.16
2023-03-22T16:20:49.225Z,36.16
2023-03-22T16:21:57.337Z,36.2
2023-03-22T16:23:05.557Z,25.31
2023-03-22T16:24:13.887Z,36.18
2023-03-22T16:25:21.910Z,36.16
2023-03-22T16:26:30.164Z,36.18
2023-03-22T16:27:38.488Z,25.34
2023-03-22T16:28:52.080Z,36.18
2023-03-22T16:30:00.323Z,36.16
2023-03-22T16:31:14.188Z,36.16
2023-03-22T16:32:22.407Z,36.2
2023-03-22T16:33:30.595Z,36.2
2023-03-22T16:34:38.712Z,36.2
2023-03-22T16:35:46.910Z,36.18
2023-03-22T16:36:55.026Z,36.18
2023-03-22T16:38:03.335Z,36.18
2023-03-22T16:39:11.662Z,36.15
2023-03-22T16:40:19.720Z,36.18
2023-03-22T16:41:28.016Z,36.16
2023-03-22T16:42:36.227Z,36.16
2023-03-22T16:43:44.340Z,36.18
2023-03-22T16:44:52.447Z,36.2
2023-03-22T16:46:00.798Z,36.16
2023-03-22T16:47:08.936Z,36.18
2023-03-22T16:48:16.954Z,36.18
2023-03-22T16:49:25.379Z,36.18
2023-03-22T16:50:33.495Z,36.2
2023-03-22T16:51:41.528Z,36.2
2023-03-22T16:52:49.852Z,36.18
2023-03-22T16:54:03.707Z,36.2
2023-03-22T16:55:22.868Z,36.22
2023-03-22T16:56:31.067Z,36.22
2023-03-22T16:57:39.438Z,36.2
2023-03-22T16:58:47.629Z,36.16
2023-03-22T16:59:55.823Z,36.2
2023-03-22T17:01:03.933Z,36.2
2023-03-22T17:02:12.096Z,36.2
2023-03-22T17:03:20.394Z,36.18
2023-03-22T17:04:28.568Z,36.22
2023-03-22T17:05:36.787Z,36.22
2023-03-22T17:06:44.940Z,36.23
2023-03-22T17:07:53.175Z,36.23
2023-03-22T17:09:01.384Z,36.23
2023-03-22T17:10:09.593Z,36.23
2023-03-22T17:11:17.666Z,36.2
2023-03-22T17:12:25.947Z,36.22
2023-03-22T17:13:34.139Z,36.22
2023-03-22T17:14:42.391Z,36.23
2023-03-22T17:15:50.459Z,36.23
2023-03-22T17:17:04.296Z,36.22
2023-03-22T17:18:12.521Z,36.22
2023-03-22T17:19:20.534Z,36.2
2023-03-22T17:20:28.868Z,36.23
2023-03-22T17:21:37.090Z,36.23
2023-03-22T17:22:45.107Z,36.23
2023-03-22T17:23:53.523Z,36.3
2023-03-22T17:25:01.663Z,36.23
2023-03-22T17:26:09.863Z,36.23
2023-03-22T17:27:18.064Z,36.23
2023-03-22T17:28:26.218Z,36.25
2023-03-22T17:29:34.267Z,36.25
2023-03-22T17:30:42.580Z,36.27
2023-03-22T17:31:50.812Z,36.23
2023-03-22T17:32:59.005Z,36.25
2023-03-22T17:34:07.234Z,36.23
2023-03-22T17:35:15.406Z,36.25
2023-03-22T17:36:23.565Z,36.25
2023-03-22T17:37:31.763Z,36.25
2023-03-22T17:38:39.985Z,36.25
2023-03-22T17:39:53.588Z,36.25
2023-03-22T17:41:01.971Z,36.34
2023-03-22T17:42:10.118Z,36.27
2023-03-22T17:43:18.324Z,36.25
2023-03-22T17:44:26.503Z,36.25
2023-03-22T17:45:34.677Z,36.27
2023-03-22T17:46:42.736Z,36.27
2023-03-22T17:47:51.105Z,36.25
2023-03-22T17:48:59.308Z,36.22
2023-03-22T17:50:07.523Z,36.27
2023-03-22T17:51:15.739Z,36.27
2023-03-22T17:52:23.893Z,36.27
2023-03-22T17:53:32.103Z,36.25
2023-03-22T17:54:40.250Z,36.27
2023-03-22T17:55:48.446Z,36.27
2023-03-22T17:56:56.684Z,36.28
2023-03-22T17:58:04.840Z,36.27
2023-03-22T17:59:13.076Z,36.27
2023-03-22T18:00:21.227Z,36.28
2023-03-22T18:01:29.438Z,36.27
2023-03-22T18:02:43.060Z,36.27
2023-03-22T18:03:51.430Z,36.25
2023-03-22T18:04:59.437Z,36.27
2023-03-22T18:06:07.800Z,36.27
2023-03-22T18:07:15.983Z,36.28
2023-03-22T18:08:24.173Z,36.27
2023-03-22T18:09:32.392Z,36.27
2023-03-22T18:10:40.430Z,36.27
2023-03-22T18:11:48.812Z,36.27
2023-03-22T18:12:56.972Z,36.3
2023-03-22T18:14:05.138Z,36.3
2023-03-22T18:15:13.338Z,36.3
2023-03-22T18:16:21.467Z,36.3
2023-03-22T18:17:29.731Z,36.28
2023-03-22T18:18:37.938Z,36.64
2023-03-22T18:19:46.132Z,39.41
2023-03-22T18:20:54.287Z,39.78
2023-03-22T18:22:02.492Z,39.41
2023-03-22T18:23:10.715Z,39.44
2023-03-22T18:24:18.943Z,39.8
2023-03-22T18:25:32.687Z,39.42
2023-03-22T18:26:46.447Z,39.8
2023-03-22T18:28:00.267Z,39.8
2023-03-22T18:29:13.847Z,39.83
2023-03-22T18:30:27.634Z,39.44
2023-03-22T18:31:35.840Z,39.44
2023-03-22T18:32:44.028Z,39.42
2023-03-22T18:33:52.382Z,39.42
2023-03-22T18:35:00.425Z,39.46
2023-03-22T18:36:08.612Z,39.44
2023-03-22T18:37:17.000Z,39.44
2023-03-22T18:38:25.178Z,39.44
2023-03-22T18:39:33.180Z,39.46
2023-03-22T18:40:41.545Z,39.44
2023-03-22T18:41:49.726Z,39.46
2023-03-22T18:42:57.982Z,39.46
2023-03-22T18:44:05.972Z,39.47
2023-03-22T18:45:14.150Z,39.44
2023-03-22T18:46:22.365Z,39.42
2023-03-22T18:47:30.730Z,39.47
2023-03-22T18:48:38.919Z,39.44
2023-03-22T18:49:46.932Z,39.46
2023-03-22T18:50:55.358Z,39.46
2023-03-22T18:52:03.313Z,39.83
2023-03-22T18:53:17.365Z,39.47
2023-03-22T18:54:25.462Z,39.46
2023-03-22T18:55:33.758Z,39.83
2023-03-22T18:56:41.714Z,39.85
2023-03-22T18:57:50.031Z,39.85
2023-03-22T18:58:58.249Z,39.87
2023-03-22T19:00:06.481Z,39.89
2023-03-22T19:01:14.463Z,39.85
2023-03-22T19:02:22.835Z,39.83
2023-03-22T19:03:31.033Z,39.83
2023-03-22T19:04:39.216Z,39.87
2023-03-22T19:05:47.236Z,39.87
2023-03-22T19:06:55.613Z,39.89
2023-03-22T19:08:03.791Z,39.83
2023-03-22T19:08:46.092Z,40.31
2023-03-22T19:09:54.115Z,40.3
2023-03-22T19:11:02.521Z,40.26
2023-03-22T19:12:10.567Z,40.28
2023-03-22T19:13:18.893Z,39.9
2023-03-22T19:14:27.058Z,40.28
2023-03-22T19:15:35.270Z,39.9
2023-03-22T19:16:43.438Z,40.3
2023-03-22T19:17:51.652Z,40.26
2023-03-22T19:18:59.773Z,40.28
2023-03-22T19:20:08.033Z,40.31
2023-03-22T19:21:16.234Z,40.28
2023-03-22T19:22:24.377Z,40.28
2023-03-22T19:23:32.599Z,40.31
2023-03-22T19:24:40.846Z,40.3
2023-03-22T19:25:48.986Z,40.3
2023-03-22T19:26:57.182Z,39.89
2023-03-22T19:28:05.384Z,40.31
2023-03-22T19:29:13.560Z,40.3
2023-03-22T19:30:21.788Z,40.28
2023-03-22T19:31:35.521Z,40.28
2023-03-22T19:32:43.646Z,40.31
2023-03-22T19:33:51.975Z,40.31
2023-03-22T19:35:00.165Z,40.3
2023-03-22T19:36:08.339Z,40.31
2023-03-22T19:37:16.495Z,40.3
2023-03-22T19:38:24.646Z,40.3
2023-03-22T19:39:32.910Z,40.3
2023-03-22T19:40:41.085Z,40.3
2023-03-22T19:41:49.312Z,40.33
2023-03-22T19:42:57.490Z,40.31
2023-03-22T19:44:05.606Z,40.31
2023-03-22T19:45:13.927Z,40.33
2023-03-22T19:46:22.069Z,40.3
2023-03-22T19:47:30.286Z,40.3
2023-03-22T19:48:38.305Z,40.33
2023-03-22T19:49:46.644Z,40.3
2023-03-22T19:50:54.777Z,40.3
2023-03-22T19:52:03.027Z,40.3
2023-03-22T19:53:11.209Z,40.31
2023-03-22T19:54:24.999Z,40.3
2023-03-22T19:55:38.619Z,40.31
2023-03-22T19:56:46.992Z,40.33
2023-03-22T19:57:55.021Z,40.33
2023-03-22T19:59:03.388Z,40.31
2023-03-22T20:00:11.573Z,40.3
2023-03-22T20:01:19.603Z,40.31
2023-03-22T20:02:27.945Z,40.31
2023-03-22T20:03:36.061Z,40.33
2023-03-22T20:04:44.336Z,40.31
2023-03-22T20:05:52.386Z,40.31
2023-03-22T20:07:00.773Z,40.33
2023-03-22T20:08:08.942Z,40.35
2023-03-22T20:09:17.096Z,40.3
2023-03-22T20:10:25.299Z,40.31
2023-03-22T20:11:33.432Z,40.31
2023-03-22T20:13:49.868Z,40.35
2023-03-22T20:14:58.091Z,40.33
2023-03-22T20:16:06.212Z,40.31
2023-03-22T20:17:14.449Z,40.33
2023-03-22T20:18:22.591Z,40.31
2023-03-22T20:19:30.771Z,40.35
2023-03-22T20:20:38.904Z,40.31
2023-03-22T20:21:52.806Z,40.33
2023-03-22T20:23:01.011Z,40.33
2023-03-22T20:24:09.212Z,40.35
2023-03-22T20:25:17.396Z,40.33
2023-03-22T20:26:25.587Z,40.33
2023-03-22T20:27:33.810Z,40.35
2023-03-22T20:28:41.986Z,40.33
2023-03-22T20:29:50.185Z,40.33
2023-03-22T20:30:58.337Z,40.35
2023-03-22T20:32:06.557Z,40.33
2023-03-22T20:33:14.740Z,40.33
2023-03-22T20:34:22.934Z,40.33
2023-03-22T20:35:30.945Z,40.31
2023-03-22T20:36:39.316Z,40.35
2023-03-22T20:37:47.526Z,40.33
2023-03-22T20:38:55.744Z,40.35
2023-03-22T20:40:03.914Z,40.35
2023-03-22T20:41:12.070Z,40.35
2023-03-22T20:42:20.137Z,40.33
2023-03-22T20:43:28.297Z,40.33
2023-03-22T20:44:42.319Z,40.33
2023-03-22T20:45:55.914Z,40.33
2023-03-22T20:47:04.231Z,40.33
2023-03-22T20:48:12.405Z,40.33
2023-03-22T20:49:20.590Z,40.33
2023-03-22T20:50:28.786Z,40.35
2023-03-22T20:51:36.984Z,39.95
2023-03-22T20:52:45.139Z,40.35
2023-03-22T20:53:53.404Z,40.33
2023-03-22T20:55:01.512Z,40.33
2023-03-22T20:56:09.655Z,40.33
2023-03-22T20:57:17.906Z,40.31
2023-03-22T20:58:26.184Z,40.33
2023-03-22T20:59:34.479Z,40.35
2023-03-22T21:00:42.571Z,40.35
2023-03-22T21:01:50.589Z,40.35
2023-03-22T21:02:58.949Z,40.35
2023-03-22T21:04:07.141Z,40.33
2023-03-22T21:05:15.384Z,40.35
2023-03-22T21:06:23.564Z,40.33
2023-03-22T21:07:31.719Z,40.33
2023-03-22T21:08:45.318Z,40.33
2023-03-22T21:09:53.735Z,40.35
2023-03-22T21:11:01.711Z,40.33
2023-03-22T21:12:10.097Z,40.33
2023-03-22T21:13:18.162Z,40.35
2023-03-22T21:14:26.448Z,40.33
2023-03-22T21:15:34.556Z,40.35
2023-03-22T21:16:42.842Z,40.35
2023-03-22T21:17:50.952Z,40.35
2023-03-22T21:18:59.109Z,40.35
2023-03-22T21:20:07.408Z,40.35
2023-03-22T21:21:15.573Z,40.35
2023-03-22T21:22:23.758Z,40.33
2023-03-22T21:23:32.025Z,40.35
2023-03-22T21:24:40.193Z,39.97
2023-03-22T21:25:48.281Z,40.35
2023-03-22T21:26:56.606Z,40.35
2023-03-22T21:28:04.762Z,40.33
2023-03-22T21:29:12.949Z,39.99
2023-03-22T21:30:21.097Z,40.33
2023-03-22T21:31:29.320Z,40.35
2023-03-22T21:32:37.364Z,40.35
2023-03-22T21:33:51.298Z,40.37
2023-03-22T21:35:05.169Z,40.35
2023-03-22T21:36:13.345Z,40.37
2023-03-22T21:37:21.511Z,40.33
2023-03-22T21:38:29.681Z,40.33
2023-03-22T21:39:37.840Z,40.35
2023-03-22T21:40:45.979Z,40.33
2023-03-22T21:41:54.241Z,40.37
2023-03-22T21:43:02.363Z,40.33
2023-03-22T21:44:10.672Z,40.35
2023-03-22T21:45:18.779Z,40.33
2023-03-22T21:46:27.091Z,40.33
2023-03-22T21:47:35.279Z,40.35
2023-03-22T21:48:43.446Z,40.35
2023-03-22T21:49:51.627Z,40.35
2023-03-22T21:50:59.833Z,40.37
2023-03-22T21:52:07.844Z,40.35
2023-03-22T21:53:16.135Z,39.97
2023-03-22T21:54:24.374Z,40.37
2023-03-22T21:55:32.580Z,40.35
2023-03-22T21:56:40.599Z,40.33
2023-03-22T21:57:54.528Z,40.37
2023-03-22T21:59:08.360Z,40.35
2023-03-22T22:00:16.368Z,40.37
2023-03-22T22:01:24.623Z,40.35
2023-03-22T22:02:32.750Z,40.35
2023-03-22T22:03:41.063Z,40.35
2023-03-22T22:04:49.331Z,40.33
2023-03-22T22:05:57.461Z,40.37
2023-03-22T22:07:05.606Z,40.37
2023-03-22T22:08:13.910Z,40.38
2023-03-22T22:09:22.096Z,40.37
2023-03-22T22:10:30.239Z,40.35
2023-03-22T22:11:38.437Z,40.35
2023-03-22T22:12:46.668Z,40.37
2023-03-22T22:13:54.868Z,39.97
2023-03-22T22:15:03.072Z,40.35
2023-03-22T22:16:11.234Z,40.35
2023-03-22T22:17:19.401Z,40.33
2023-03-22T22:18:27.627Z,40.35
2023-03-22T22:19:35.822Z,40.37
2023-03-22T22:20:43.988Z,40.33
2023-03-22T22:21:57.800Z,40.35
2023-03-22T22:23:11.592Z,40.35
2023-03-22T22:24:19.769Z,40.35
2023-03-22T22:25:27.905Z,40.38
2023-03-22T22:26:36.173Z,40.37
2023-03-22T22:27:44.389Z,40.37
2023-03-22T22:28:52.546Z,39.99
2023-03-22T22:30:00.546Z,40.35
2023-03-22T22:31:08.765Z,39.99
2023-03-22T22:32:17.115Z,40.37
2023-03-22T22:33:25.285Z,39.97
2023-03-22T22:34:33.527Z,40.35
2023-03-22T22:35:41.601Z,40.37
2023-03-22T22:36:49.918Z,39.97
2023-03-22T22:37:58.046Z,40.35
2023-03-22T22:39:06.239Z,40.35
2023-03-22T22:40:14.387Z,40.33
2023-03-22T22:41:22.480Z,40.37
2023-03-22T22:42:30.835Z,40.37
2023-03-22T22:43:39.003Z,40.35
2023-03-22T22:44:58.386Z,40.35
2023-03-22T22:46:12.162Z,39.99
2023-03-22T22:47:20.216Z,40.35
2023-03-22T22:48:28.400Z,40.38
2023-03-22T22:49:36.668Z,40.35
2023-03-22T22:50:44.945Z,40.37
2023-03-22T22:51:52.982Z,40.38
2023-03-22T22:53:01.234Z,40.35
2023-03-22T22:54:09.372Z,40.37
2023-03-22T22:55:17.575Z,40.35
2023-03-22T22:56:25.754Z,40.01
2023-03-22T22:57:34.078Z,40.37
2023-03-22T22:58:42.141Z,40.35
2023-03-22T22:59:50.338Z,40.35
2023-03-22T23:00:58.526Z,40.35
2023-03-22T23:02:06.734Z,40.37
2023-03-22T23:03:15.069Z,40.37
2023-03-22T23:04:23.115Z,40.01
2023-03-22T23:05:31.620Z,40.37
2023-03-22T23:06:39.638Z,40.37
2023-03-22T23:07:47.685Z,40.35
2023-03-22T23:09:01.545Z,40.37
2023-03-22T23:10:15.256Z,40.35
2023-03-22T23:11:23.433Z,40.38
2023-03-22T23:12:31.692Z,40.35
2023-03-22T23:13:39.959Z,40.33
2023-03-22T23:14:48.158Z,40.38
2023-03-22T23:15:56.246Z,40.37
2023-03-22T23:17:04.507Z,40.37
2023-03-22T23:18:12.609Z,40.35
2023-03-22T23:19:20.803Z,40.37
2023-03-22T23:20:29.176Z,40.37
2023-03-22T23:21:37.288Z,40.37
2023-03-22T23:22:45.376Z,40.35
2023-03-22T23:23:53.671Z,40.37
2023-03-22T23:25:01.824Z,40.38
2023-03-22T23:27:18.136Z,40.37
2023-03-22T23:28:26.333Z,40.37
2023-03-22T23:29:34.625Z,40.37
2023-03-22T23:30:42.874Z,40.38
2023-03-22T23:31:50.917Z,40.37
2023-03-22T23:32:59.256Z,40.37
2023-03-22T23:34:12.993Z,40.35
2023-03-22T23:35:26.709Z,40.35
2023-03-22T23:36:34.870Z,40.37
2023-03-22T23:37:43.230Z,40.35
2023-03-22T23:38:51.257Z,40.37
2023-03-22T23:39:59.493Z,40.35
2023-03-22T23:41:07.774Z,40.37
2023-03-22T23:42:15.964Z,40.38
2023-03-22T23:43:24.031Z,40.37
2023-03-22T23:44:32.219Z,40.38
2023-03-22T23:45:40.560Z,40.35
2023-03-22T23:46:48.792Z,40.37
2023-03-22T23:47:56.818Z,40.37
2023-03-22T23:49:05.138Z,40.37
2023-03-22T23:50:13.317Z,40.37
2023-03-22T23:51:21.538Z,40.38
2023-03-22T23:52:29.766Z,40.01
2023-03-22T23:53:37.934Z,40.37
2023-03-22T23:54:46.118Z,40.37
2023-03-22T23:55:54.226Z,40.37
2023-03-22T23:57:02.478Z,40.37
2023-03-22T23:58:16.232Z,40.37
2023-03-22T23:59:24.487Z,40.38
